Dragoon, AZ (85609)

3:28 PM MST on September 03, 2015 (GMT -0700)
Dragoon | | Change Station
CLOSE
Current Station
Personal Weather Station
Location: Dragoon, AZ
Elevation: 4731 ft
Nearby Weather Stations

Elev 4731 ft 32.03 °N, 110.09 °W | Updated 19 seconds ago

Partly Cloudy
Partly Cloudy
70.7 °F
Feels Like 72 °F
N
6.0
Wind Variable Wind from SW
Gusts 8.7 mph

Today
High -- | Low -- °F
--% Chance of Precip.
Yesterday
High -- | Low -- °F
Precip. -- in
5:56 AM 6:41 PM
Waning Gibbous, 66% visible
Pressure 30.10 in
Visibility 6.0 miles
Clouds Few 8000 ft
Mostly Cloudy 9500 ft
Heat Index 72 °F
Dew Point 63 °F
Humidity 77%
Rainfall 0.05 in
Snow Depth Not available.
UV 4 out of 12
Pollen .70 out of 12
Air Quality Not available.
Flu Activity Not available.
SPECI KFHU 032204Z 29008KT 6SM -RA VCTS FEW080 BKN095 22/16 A3010 RMK AO2A LTG DSNT NW-NE PRESRR
Pressure 30.10 in
Visibility 6.0 miles
Clouds Few 8000 ft
Mostly Cloudy 9500 ft
Heat Index 72 °F
Dew Point 63 °F
Humidity 77%
Rainfall 0.05 in
Snow Depth Not available.
UV 4 out of 12
Pollen .70 out of 12
Air Quality Not available.
Flu Activity Not available.
SPECI KFHU 032204Z 29008KT 6SM -RA VCTS FEW080 BKN095 22/16 A3010 RMK AO2A LTG DSNT NW-NE PRESRR
Nowcast | as of 1:35 PM MST on September 3, 2015

Showers and thunderstorms continue to gradually increase in coverage across parts of Pima and Santa Cruz counties early this afternoon. Additional thunderstorm development is expected through this afternoon over portions of Cochise...Graham...and Greenlee counties. These showers and storms will be capable of producing heavy rainfall...with amounts of one quarter to three quarters of an inch with localized amounts in excess of one inch...small hail...and wind gusts of 45 mph. Storm motions will be towards the northeast at around 15 mph.

×

10-Day Weather Forecast

×

Almanac

Astronomy

Sep. 03, 2015 Rise Set
Actual Time
Civil Twilight
Nautical Twilight
Astronomical Twilight
Moon
Length of Visible Light
Length of Day
Tomorrow will be .
, % of the Moon is Illuminated

Today's Extremes

State Highs State Lows

Community

WunderPhotos

Upload Photos

1,852,048 photos uploaded!

WunderBlogs® & News

Nearby

Air Quality

  Air Quality AQ Index Pollutant
Not available.

Snow Depth

Station Depth Elevation

Earthquake Activity

City Distance Mag. Time & Date
Minimum magnitude displayed is 2.5.

Coastal Water Temperatures

Place Temperature

Stations

Nearby Weather Stations

Station Location Temp. Windchill Dew Point Humidity Wind Precip. Elev Updated Type